Aérodrome :
LOGIN :

S'inscrire | Disclaimer

   EN    FR    IT 

 










Légende :    VFR   VFR Marginal   IFR   IFR Intensif   IFR Très Intensif
Visi : 
Plafond : 
>= 8 km
>= 3000ft
5 à 8 km
1000 à 3000 ft
1500m à 5 km
500 à 1000 ft
800 à 1500m
200 à 500 ft
< 800m
< 200 ft
Symboles :   Orages  Brouillard  Fortes neiges  Fortes précipitations  Vent > 20 kt
SIGMETs :   Divers  Orages  Givrage  Turbulence  Onde Orograph.  Cendres Volcan.







- Altitude de l'aérodrome : 40 ft
- Code IATA : RMI


LIPR - Federico Fellini Int. Rimini

DERNIER METAR :
  • 121545Z 20007KT 9999 SCT040 BKN070 12/07 Q1012

METARs EXPIRÉS :
  • 121515Z 22003KT 9999 SCT040 BKN060 13/09 Q1012
  • 121445Z 26003KT 9999 SCT040 BKN060 13/09 Q1012
  • 121415Z 20001KT 9999 SCT040 BKN060 13/11 Q1012
  • 121345Z 23001KT 9999 BKN030 SCT070 12/11 Q1011
  • 121315Z 19002KT 9999 BKN040 SCT070 12/11 Q1011
  • 121245Z 18002KT 9999 BKN040 SCT070 12/11 Q1011

TAF TAF LIPR
Valide du 12 à 15h jusqu'au 13 à 00h UTC


121400Z 1215/1224 18010KT 9999 SCT030 BKN040
TEMPO 1215/1224 3000 RA BR
Pas de NOTAMs connus pour ce terrain.
2 SIGMETs publiés pour la FIR Milano (LIMM) :
 
Turbulence forte
LIMM SIGMET 12 VALID 121415/121815 LIIP
LIMM MILANO FIR SEV TURB FCST N OF LINE N4407 E00658 - N4625 E00955 FL240/380 MOV E WKN=
Givrage fort
LIMM SIGMET 11 VALID 121420/121720 LIIP
LIMM MILANO FIR SEV ICE OBS WI N4614 E01329 - N4546 E01103 - N4433 E01110 - N4437 E01313 - N4509 E01306 - N4536 E01331 - N4536 E01353 - N4614 E01329 FL180/280 STNR NC=



MET'MAP, la Météo Aéronautique d'un coup d'oeil ! - Copyright ORBIFLY Décembre 2007 - Disclaimer

ORBIFLY MET'MAP TEAM :

Programmation & Développement : Alexandra Zaïnal
Conception & Développement : Baudouin d'Aumeries
Co-Programmation & Développement : Marc-Olivier Méhu
Soutien technique & logistique : Manuel Goepfert

Contact : metmap@orbifly.com




SOURCES & CREDITS :

   NOAA